SCVD/ZAL METAR and TAF weather

Enter ICAO airport designator
Station Type Date Time Source
SCVD METAR 2020/04/02 04:00 UTC NOAA

SCVD 020400Z AUTO 24004KT CAVOK 05/05 Q1027


Station Type Date Time Source
SCVD Decoded METAR 2020/04/02 04:00 UTC NOAA

Valdivia, Chile (SCVD) 39-37S 073-05W
Apr 02, 2020 - 12:00 AM EDT / 2020.04.02 0400 UTC
Wind: from the WSW (240 degrees) at 5 MPH (4 KT):0
Visibility: greater than 7 mile(s):0
Temperature: 41 F (5 C)
Dew Point: 41 F (5 C)
Relative Humidity: 100%
Pressure (altimeter): 30.33 in. Hg (1027 hPa)
ob: SCVD 020400Z AUTO 24004KT CAVOK 05/05 Q1027
cycle: 4

Station Type Date Time Source
SCVD TAF 2020/04/01 12:00 UTC NOAA

TAF SCVD 011032Z 0112/0124 VRB02KT 2000 BR BKN002 TN02/0112Z TX20/0120Z
BECMG 0113/0115 CAVOK
BECMG 0115/0116 18010KT

Example: see airport list